Time;durP1;ratioP1;P1;durP2;ratioP2;P2;SDS_P1;SDS_P2;PMS_P1;PMS_P2;Temp;Humidity;BMP_temperature;BMP_pressure;BME280_temperature;BME280_humidity;BME280_pressure;Samples;Min_cycle;Max_cycle;Signal;HPM_P1;HPM_P2
2022/03/27 00:00:58;;;;;;;37.42;26.17;;;27.30;99.90;;;;;;5097290;28;20028;-63
2022/03/27 00:03:25;;;;;;;37.47;28.40;;;27.30;99.90;;;;;;5082210;28;20043;-62
2022/03/27 00:05:51;;;;;;;45.08;29.58;;;27.30;99.90;;;;;;5076973;28;20111;-63
2022/03/27 00:08:18;;;;;;;38.42;26.42;;;27.30;99.90;;;;;;5088249;28;20031;-62
2022/03/27 00:13:15;;;;;;;35.40;23.50;;;27.40;99.90;;;;;;5096786;28;20029;-62
2022/03/27 00:15:42;;;;;;;37.50;24.67;;;27.40;99.90;;;;;;5097062;28;20036;-62
2022/03/27 00:18:08;;;;;;;36.10;23.92;;;27.30;99.90;;;;;;5090738;28;20024;-62
2022/03/27 00:20:35;;;;;;;47.70;31.30;;;27.30;99.90;;;;;;5088241;28;20472;-62
2022/03/27 00:23:02;;;;;;;52.67;31.63;;;27.20;99.90;;;;;;5086460;28;20477;-64
2022/03/27 00:25:28;;;;;;;44.80;30.38;;;27.20;99.90;;;;;;5086588;28;20036;-61
2022/03/27 00:27:55;;;;;;;44.33;30.00;;;27.20;99.90;;;;;;5093436;28;20473;-62
2022/03/27 00:30:22;;;;;;;37.92;26.83;;;27.20;99.90;;;;;;5090682;28;20035;-63
2022/03/27 00:32:48;;;;;;;33.60;24.35;;;27.30;99.90;;;;;;5086858;28;20052;-61
2022/03/27 00:35:15;;;;;;;29.35;21.88;;;27.30;99.90;;;;;;5082084;28;20036;-62
2022/03/27 00:37:42;;;;;;;31.55;20.55;;;27.40;99.90;;;;;;5076234;28;20055;-62
2022/03/27 00:40:09;;;;;;;27.40;19.50;;;27.40;99.90;;;;;;5076504;28;20036;-61
2022/03/27 00:42:36;;;;;;;24.50;19.75;;;27.30;99.90;;;;;;5076254;28;20029;-62
2022/03/27 00:45:03;;;;;;;22.85;18.00;;;27.30;99.90;;;;;;5076144;28;20111;-62
2022/03/27 00:47:30;;;;;;;30.48;21.00;;;27.40;99.90;;;;;;5076106;28;20048;-62
2022/03/27 00:49:56;;;;;;;25.60;19.15;;;27.40;99.90;;;;;;5088327;28;20035;-62
2022/03/27 00:52:23;;;;;;;27.38;19.48;;;27.50;99.90;;;;;;5080721;28;20477;-62
2022/03/27 00:54:50;;;;;;;35.50;21.98;;;27.50;99.90;;;;;;5090224;28;20032;-62
2022/03/27 00:57:17;;;;;;;29.15;21.05;;;27.50;99.90;;;;;;5091170;28;20094;-61
2022/03/27 00:59:44;;;;;;;32.30;21.60;;;27.50;99.90;;;;;;5090953;28;20073;-61
2022/03/27 01:02:10;;;;;;;29.88;17.60;;;27.50;99.90;;;;;;5088362;28;20107;-63
2022/03/27 01:04:44;;;;;;;27.33;20.58;;;27.30;99.90;;;;;;5085625;28;20024;-63
2022/03/27 01:07:20;;;;;;;35.70;25.70;;;27.20;99.90;;;;;;5086316;28;20021;-62
2022/03/27 01:09:48;;;;;;;78.65;54.80;;;27.10;99.90;;;;;;5086893;28;20143;-61
2022/03/27 01:12:20;;;;;;;52.17;37.35;;;27.00;99.90;;;;;;5086349;28;20105;-61
2022/03/27 01:14:49;;;;;;;53.13;39.72;;;27.10;99.90;;;;;;5086758;28;20109;-62
2022/03/27 01:17:18;;;;;;;44.05;35.70;;;27.20;99.90;;;;;;5086550;28;20043;-61
2022/03/27 01:19:50;;;;;;;45.67;36.30;;;27.30;99.90;;;;;;5084953;28;20029;-62
2022/03/27 01:22:17;;;;;;;50.97;39.47;;;27.30;99.90;;;;;;5086530;28;20484;-62
2022/03/27 01:24:45;;;;;;;52.95;40.70;;;27.40;99.90;;;;;;5084955;28;20420;-61
2022/03/27 01:27:13;;;;;;;51.45;43.08;;;27.40;99.90;;;;;;5085052;28;20024;-61
2022/03/27 01:29:40;;;;;;;48.65;38.38;;;27.50;99.90;;;;;;5087148;28;20024;-61
2022/03/27 01:32:10;;;;;;;55.28;32.88;;;27.50;99.90;;;;;;5088056;28;20081;-62
2022/03/27 01:34:36;;;;;;;40.72;30.60;;;27.50;99.90;;;;;;5095507;28;20020;-61
2022/03/27 01:37:08;;;;;;;47.30;35.03;;;27.50;99.90;;;;;;5095307;28;20024;-62
2022/03/27 01:39:36;;;;;;;39.50;29.92;;;27.60;99.90;;;;;;5094595;28;20102;-62
2022/03/27 01:42:04;;;;;;;30.65;22.70;;;27.60;99.90;;;;;;5095379;28;20465;-62
2022/03/27 01:44:31;;;;;;;24.33;17.77;;;27.60;99.90;;;;;;5094843;28;20028;-61
2022/03/27 01:46:59;;;;;;;20.27;15.27;;;27.60;99.90;;;;;;5083588;28;20033;-61
2022/03/27 01:49:26;;;;;;;22.80;14.15;;;27.60;99.90;;;;;;5085137;28;20077;-61
2022/03/27 01:51:53;;;;;;;20.25;13.95;;;27.50;99.90;;;;;;5078409;28;20078;-61
2022/03/27 01:54:22;;;;;;;20.08;13.23;;;27.50;99.90;;;;;;5082260;28;20047;-61
2022/03/27 01:56:49;;;;;;;19.65;13.25;;;27.50;99.90;;;;;;5084786;28;20025;-61
2022/03/27 01:59:16;;;;;;;84.22;60.08;;;27.50;99.90;;;;;;5087610;28;20032;-63
2022/03/27 02:01:42;;;;;;;35.55;24.52;;;27.60;99.90;;;;;;5090240;28;20035;-61
2022/03/27 02:04:09;;;;;;;22.08;14.70;;;27.60;99.90;;;;;;5088487;28;20035;-63
2022/03/27 02:06:37;;;;;;;40.22;27.35;;;27.60;99.90;;;;;;5074663;28;20074;-62
2022/03/27 02:09:04;;;;;;;73.00;44.80;;;27.60;99.90;;;;;;5084962;28;20035;-62
2022/03/27 02:11:31;;;;;;;33.50;23.05;;;27.70;99.90;;;;;;5085441;28;20555;-59
2022/03/27 02:13:58;;;;;;;32.08;23.85;;;27.80;99.90;;;;;;5085428;28;20054;-62
2022/03/27 02:16:25;;;;;;;35.17;24.70;;;27.90;99.90;;;;;;5083803;28;20190;-63
2022/03/27 02:18:52;;;;;;;50.67;33.90;;;28.00;99.90;;;;;;5087713;28;20024;-61
2022/03/27 02:21:19;;;;;;;36.22;24.98;;;28.20;99.90;;;;;;5082673;28;20033;-61
2022/03/27 02:23:46;;;;;;;34.88;25.42;;;28.20;99.90;;;;;;5081963;28;20118;-60
2022/03/27 02:26:13;;;;;;;41.85;28.15;;;28.30;99.90;;;;;;5083311;28;20047;-61
2022/03/27 02:28:40;;;;;;;38.90;27.52;;;28.40;99.90;;;;;;5085398;28;20479;-60
2022/03/27 02:31:08;;;;;;;49.75;31.98;;;28.50;99.90;;;;;;5085030;28;20020;-61
2022/03/27 02:33:36;;;;;;;49.67;31.45;;;28.70;99.90;;;;;;5084250;28;20099;-61
2022/03/27 02:36:08;;;;;;;50.05;36.10;;;28.80;99.90;;;;;;5085736;28;20082;-61
2022/03/27 02:38:35;;;;;;;47.58;32.10;;;29.00;99.90;;;;;;5087428;28;20028;-61
2022/03/27 02:41:03;;;;;;;48.67;30.85;;;29.00;99.90;;;;;;5080785;28;20501;-63
2022/03/27 02:43:31;;;;;;;47.97;31.27;;;28.90;99.90;;;;;;5088516;28;20081;-62
2022/03/27 02:45:58;;;;;;;41.22;30.45;;;28.90;99.90;;;;;;5087011;28;20028;-62
2022/03/27 02:48:24;;;;;;;45.35;29.33;;;28.80;99.90;;;;;;5079453;28;20067;-61
2022/03/27 02:50:51;;;;;;;54.58;29.90;;;28.90;99.90;;;;;;5082730;28;20055;-62
2022/03/27 02:53:18;;;;;;;71.65;56.30;;;29.00;99.90;;;;;;5083118;28;20025;-63
2022/03/27 02:55:45;;;;;;;112.30;56.30;;;29.20;99.90;;;;;;5084387;28;20036;-62
2022/03/27 02:58:11;;;;;;;107.68;71.03;;;29.30;99.90;;;;;;5083659;28;20102;-64
2022/03/27 03:00:40;;;;;;;45.92;33.60;;;29.30;99.90;;;;;;5076180;28;20586;-64
2022/03/27 03:03:08;;;;;;;43.63;30.77;;;29.20;99.90;;;;;;5084343;28;20040;-64
2022/03/27 03:05:38;;;;;;;61.17;45.42;;;29.00;99.90;;;;;;5086404;28;20050;-63
2022/03/27 03:08:06;;;;;;;35.47;25.95;;;29.00;99.90;;;;;;5091331;28;20059;-66
2022/03/27 03:10:34;;;;;;;73.45;56.22;;;29.00;99.90;;;;;;5088187;28;20123;-62
2022/03/27 03:13:00;;;;;;;36.05;26.70;;;29.00;99.90;;;;;;5078855;28;20091;-61
2022/03/27 03:15:27;;;;;;;32.20;16.80;;;29.00;99.90;;;;;;5077160;28;20031;-63
2022/03/27 03:17:54;;;;;;;24.83;15.20;;;29.00;99.90;;;;;;5073665;28;20409;-63
2022/03/27 03:20:21;;;;;;;32.65;22.13;;;28.90;99.90;;;;;;5086292;28;20024;-62
2022/03/27 03:22:48;;;;;;;48.33;25.00;;;28.80;99.90;;;;;;5085629;28;20131;-63
2022/03/27 03:25:15;;;;;;;32.65;23.08;;;28.80;99.90;;;;;;5079074;28;20028;-61
2022/03/27 03:27:42;;;;;;;40.45;27.40;;;28.80;99.90;;;;;;5092536;28;20396;-62
2022/03/27 03:30:10;;;;;;;67.30;40.85;;;28.80;99.90;;;;;;5087138;28;20028;-63
2022/03/27 03:32:37;;;;;;;72.55;48.65;;;28.90;99.90;;;;;;5087828;28;20070;-63
2022/03/27 03:35:05;;;;;;;56.50;38.38;;;29.00;99.90;;;;;;5093019;28;20051;-63
2022/03/27 03:37:32;;;;;;;213.68;163.80;;;29.10;99.90;;;;;;5093220;28;20032;-63
2022/03/27 03:39:59;;;;;;;77.78;57.42;;;29.10;99.90;;;;;;5093350;28;20035;-63
2022/03/27 03:42:26;;;;;;;93.00;65.20;;;29.10;99.90;;;;;;5093168;28;20099;-63
2022/03/27 03:44:53;;;;;;;40.97;27.63;;;29.30;99.90;;;;;;5093245;28;20060;-63
2022/03/27 03:47:20;;;;;;;29.63;20.70;;;29.40;99.90;;;;;;5093308;28;20048;-63
2022/03/27 03:49:47;;;;;;;39.13;22.30;;;29.50;99.90;;;;;;5093089;28;20052;-63
2022/03/27 03:52:13;;;;;;;33.45;20.27;;;29.60;99.90;;;;;;5093242;28;20077;-64
2022/03/27 03:54:40;;;;;;;30.27;19.20;;;29.60;99.90;;;;;;5093259;28;20111;-63
2022/03/27 03:57:07;;;;;;;28.63;16.63;;;29.60;99.90;;;;;;5093081;28;20032;-62
2022/03/27 03:59:36;;;;;;;27.58;17.13;;;29.70;99.90;;;;;;5093212;28;20028;-61
2022/03/27 04:02:08;;;;;;;27.50;17.45;;;29.60;99.90;;;;;;5093169;28;20028;-61
2022/03/27 04:04:36;;;;;;;29.15;19.73;;;29.70;99.90;;;;;;5092917;28;20024;-61
2022/03/27 04:07:04;;;;;;;26.67;19.45;;;29.80;99.90;;;;;;5093260;28;20407;-60
2022/03/27 04:09:31;;;;;;;30.85;22.80;;;29.70;99.90;;;;;;5093095;28;20024;-61
2022/03/27 04:11:58;;;;;;;30.02;22.90;;;29.80;99.90;;;;;;5092473;28;20504;-61
2022/03/27 04:14:25;;;;;;;36.60;26.63;;;29.90;99.90;;;;;;5093041;28;20063;-61
2022/03/27 04:16:52;;;;;;;51.45;38.35;;;29.90;99.90;;;;;;5092807;28;20534;-60
2022/03/27 04:19:18;;;;;;;37.17;26.02;;;30.10;99.90;;;;;;5092841;28;20419;-60
2022/03/27 04:21:45;;;;;;;38.63;26.67;;;30.10;99.90;;;;;;5092997;28;20040;-60
2022/03/27 04:24:12;;;;;;;120.15;90.70;;;30.10;99.90;;;;;;5094225;28;20076;-60
2022/03/27 04:26:40;;;;;;;63.50;46.03;;;30.20;99.90;;;;;;5095816;28;20072;-54
2022/03/27 04:29:10;;;;;;;64.03;47.40;;;30.40;99.90;;;;;;5096849;28;20024;-60
2022/03/27 04:31:38;;;;;;;58.53;40.55;;;30.60;99.90;;;;;;5096820;28;20380;-60
2022/03/27 04:34:05;;;;;;;62.38;49.53;;;30.60;99.90;;;;;;5096785;28;20038;-60
2022/03/27 04:36:31;;;;;;;49.45;34.00;;;30.60;99.90;;;;;;5096948;28;20032;-61
2022/03/27 04:38:58;;;;;;;42.35;31.98;;;30.70;99.90;;;;;;5096686;28;20016;-61
2022/03/27 04:41:25;;;;;;;50.92;36.30;;;30.70;99.80;;;;;;5096353;28;20457;-61
2022/03/27 04:43:52;;;;;;;44.55;30.20;;;30.70;99.60;;;;;;5096314;28;20431;-61
2022/03/27 04:46:19;;;;;;;125.43;61.10;;;30.80;98.50;;;;;;5096513;28;20444;-61
2022/03/27 04:48:46;;;;;;;59.85;37.13;;;30.90;98.50;;;;;;5096468;28;20028;-61
2022/03/27 04:51:14;;;;;;;41.10;30.52;;;31.00;99.50;;;;;;5096360;28;20020;-61
2022/03/27 04:53:40;;;;;;;41.13;29.73;;;31.00;99.10;;;;;;5096438;28;20088;-60
2022/03/27 04:56:07;;;;;;;36.35;26.52;;;31.00;98.90;;;;;;5096151;28;20107;-60
2022/03/27 04:58:35;;;;;;;32.63;25.60;;;31.00;98.20;;;;;;5096250;28;20035;-61
2022/03/27 05:01:03;;;;;;;37.60;24.65;;;30.90;98.30;;;;;;5096264;28;20050;-61
2022/03/27 05:03:30;;;;;;;38.55;25.35;;;30.90;98.20;;;;;;5096158;28;20479;-60
2022/03/27 05:05:56;;;;;;;39.65;26.67;;;30.80;98.60;;;;;;5095990;28;20081;-61
2022/03/27 05:08:23;;;;;;;35.75;25.52;;;30.80;99.10;;;;;;5096158;28;20031;-61
2022/03/27 05:10:50;;;;;;;35.70;25.55;;;30.80;98.70;;;;;;5095701;28;20044;-63
2022/03/27 05:13:17;;;;;;;32.70;23.63;;;30.80;99.60;;;;;;5091808;28;20031;-61
2022/03/27 05:15:45;;;;;;;33.17;23.08;;;30.80;99.70;;;;;;5119710;22;20515;-61
2022/03/27 05:18:12;;;;;;;29.10;21.80;;;31.00;99.60;;;;;;5116381;28;20222;-61
2022/03/27 05:20:40;;;;;;;29.08;20.73;;;31.10;99.70;;;;;;5116480;27;20027;-61
2022/03/27 05:23:07;;;;;;;27.73;19.83;;;31.30;98.30;;;;;;5116397;28;20023;-63
2022/03/27 05:25:40;;;;;;;28.27;21.55;;;31.50;98.40;;;;;;5116221;28;20380;-59
2022/03/27 05:28:09;;;;;;;26.40;19.85;;;31.50;98.60;;;;;;5115705;28;20044;-59
2022/03/27 05:30:36;;;;;;;28.75;18.63;;;31.60;99.30;;;;;;5111980;28;20024;-62
2022/03/27 05:33:03;;;;;;;69.82;59.35;;;31.70;98.20;;;;;;5097970;28;20028;-54
2022/03/27 05:35:30;;;;;;;46.30;36.53;;;31.70;99.00;;;;;;5094827;28;20024;-60
2022/03/27 05:37:58;;;;;;;30.73;25.67;;;31.70;98.80;;;;;;5095189;28;20538;-62
2022/03/27 05:40:26;;;;;;;43.50;33.22;;;31.90;97.60;;;;;;5100785;28;20035;-56
2022/03/27 05:42:53;;;;;;;35.97;29.77;;;32.00;96.40;;;;;;5106300;28;20114;-61
2022/03/27 05:45:20;;;;;;;47.90;37.55;;;32.00;96.50;;;;;;5106344;28;20421;-59
2022/03/27 05:47:47;;;;;;;41.97;32.83;;;32.20;95.40;;;;;;5103604;28;20024;-60
2022/03/27 05:50:16;;;;;;;28.23;22.77;;;32.20;95.40;;;;;;5103648;28;20073;-59
2022/03/27 05:52:43;;;;;;;37.40;28.75;;;32.20;95.20;;;;;;5105371;28;20020;-55
2022/03/27 05:55:10;;;;;;;31.63;22.85;;;32.10;95.50;;;;;;5095927;28;20443;-57
2022/03/27 05:57:37;;;;;;;19.60;16.50;;;32.20;95.20;;;;;;5105510;28;20024;-58
2022/03/27 06:00:06;;;;;;;111.57;84.40;;;32.10;93.40;;;;;;5113321;28;20104;-57
2022/03/27 06:02:33;;;;;;;67.22;51.55;;;32.10;94.40;;;;;;5115622;28;20408;-60
2022/03/27 06:05:00;;;;;;;29.70;21.83;;;32.20;94.40;;;;;;5115387;28;20028;-58
2022/03/27 06:07:27;;;;;;;27.52;17.95;;;32.10;93.10;;;;;;5106770;28;20024;-58
2022/03/27 06:09:54;;;;;;;26.05;19.05;;;32.10;93.30;;;;;;5115506;28;20034;-58
2022/03/27 06:12:20;;;;;;;26.08;19.48;;;32.10;93.40;;;;;;5100111;28;20023;-57
2022/03/27 06:14:48;;;;;;;27.75;20.10;;;32.10;93.00;;;;;;5112449;28;20031;-60
2022/03/27 06:17:14;;;;;;;24.05;19.33;;;32.10;93.30;;;;;;5106956;28;20043;-55
2022/03/27 06:19:41;;;;;;;20.70;16.73;;;32.20;92.90;;;;;;5106494;28;20463;-59
2022/03/27 06:22:08;;;;;;;25.98;19.17;;;32.20;93.10;;;;;;5106707;28;20032;-56
2022/03/27 06:24:35;;;;;;;26.58;17.95;;;32.30;93.10;;;;;;5109016;28;20035;-59
2022/03/27 06:27:01;;;;;;;29.10;18.73;;;32.40;92.70;;;;;;5108501;28;20157;-57
2022/03/27 06:29:28;;;;;;;24.15;18.17;;;32.40;91.60;;;;;;5106683;28;20024;-56
2022/03/27 06:31:55;;;;;;;24.63;17.77;;;32.40;91.70;;;;;;5112323;28;20051;-60
2022/03/27 06:34:21;;;;;;;27.30;18.13;;;32.40;91.50;;;;;;5105368;28;20020;-58
2022/03/27 06:36:48;;;;;;;21.98;18.30;;;32.40;91.90;;;;;;5108979;28;20032;-62
2022/03/27 06:39:15;;;;;;;22.95;18.98;;;32.50;91.70;;;;;;5104183;28;20095;-62
2022/03/27 06:41:42;;;;;;;27.48;19.05;;;32.60;91.60;;;;;;5110977;28;20043;-61
2022/03/27 06:44:08;;;;;;;27.45;20.30;;;32.70;91.90;;;;;;5111921;28;20031;-62
2022/03/27 06:46:35;;;;;;;28.98;20.92;;;32.80;92.10;;;;;;5111071;28;20020;-61
2022/03/27 06:49:02;;;;;;;29.27;22.40;;;32.90;92.20;;;;;;5105025;27;20388;-61
2022/03/27 06:51:29;;;;;;;29.58;23.05;;;32.90;91.60;;;;;;5106075;28;20488;-64
2022/03/27 06:53:56;;;;;;;31.73;22.70;;;32.90;92.20;;;;;;5104749;28;20032;-60
2022/03/27 06:56:22;;;;;;;28.38;21.05;;;33.00;92.30;;;;;;5110074;28;20078;-63
2022/03/27 06:58:49;;;;;;;34.63;24.20;;;33.10;92.30;;;;;;5107096;28;20423;-61
2022/03/27 07:03:54;;;;;;;34.75;23.27;;;33.10;92.10;;;;;;5102261;28;20090;-61
2022/03/27 07:06:21;;;;;;;28.67;23.55;;;33.20;92.00;;;;;;5106774;28;20090;-62
2022/03/27 07:08:50;;;;;;;35.35;23.05;;;33.30;90.60;;;;;;5107691;28;20070;-60
2022/03/27 07:11:17;;;;;;;28.90;22.20;;;33.40;91.00;;;;;;5101249;28;20482;-61
2022/03/27 07:13:43;;;;;;;26.73;21.75;;;33.40;90.70;;;;;;5102045;28;20400;-61
2022/03/27 07:16:11;;;;;;;23.95;21.30;;;33.50;90.60;;;;;;5106644;28;20056;-62
2022/03/27 07:18:37;;;;;;;26.65;21.20;;;33.40;90.10;;;;;;5107559;28;20041;-58
2022/03/27 07:21:04;;;;;;;30.98;22.40;;;33.40;90.20;;;;;;5122478;27;20028;-60
2022/03/27 07:23:31;;;;;;;33.15;23.95;;;33.40;90.70;;;;;;5105240;28;20476;-60
2022/03/27 07:25:57;;;;;;;32.53;23.30;;;33.40;90.60;;;;;;5105452;28;20032;-61
2022/03/27 07:28:25;;;;;;;30.42;23.58;;;33.40;89.50;;;;;;5106138;28;20468;-62
2022/03/27 07:30:51;;;;;;;32.55;23.50;;;33.30;89.10;;;;;;5113187;28;20032;-61
2022/03/27 07:33:19;;;;;;;34.05;23.95;;;33.30;90.50;;;;;;5113478;28;20104;-61
2022/03/27 07:35:46;;;;;;;38.83;28.48;;;33.40;89.20;;;;;;5113181;28;20038;-61
2022/03/27 07:38:12;;;;;;;32.40;23.63;;;33.50;90.10;;;;;;5111235;28;20028;-61
2022/03/27 07:40:40;;;;;;;31.50;22.88;;;33.50;90.20;;;;;;5112783;28;20041;-61
2022/03/27 07:43:08;;;;;;;30.13;23.10;;;33.60;90.30;;;;;;5102697;28;20419;-61
2022/03/27 07:45:36;;;;;;;29.65;23.17;;;33.70;90.20;;;;;;5104533;28;20043;-63
2022/03/27 07:48:03;;;;;;;38.08;23.98;;;33.70;89.40;;;;;;5103419;28;20024;-61
2022/03/27 07:50:31;;;;;;;35.40;23.77;;;33.70;90.10;;;;;;5107346;28;20345;-62
2022/03/27 07:52:59;;;;;;;30.33;22.42;;;33.80;90.50;;;;;;5097244;28;20099;-61
2022/03/27 07:55:26;;;;;;;29.48;22.95;;;33.80;90.00;;;;;;5105390;28;20115;-61
2022/03/27 07:57:53;;;;;;;32.08;22.45;;;33.70;89.00;;;;;;5105483;28;20020;-61
2022/03/27 08:00:20;;;;;;;31.65;23.50;;;33.70;88.80;;;;;;5107903;28;20361;-62
2022/03/27 08:02:47;;;;;;;27.70;22.55;;;33.70;88.60;;;;;;5106156;28;20035;-61
2022/03/27 08:05:14;;;;;;;32.85;23.35;;;33.60;86.30;;;;;;5107248;28;20053;-61
2022/03/27 08:07:42;;;;;;;33.30;24.33;;;33.50;88.00;;;;;;5106285;28;20031;-61
2022/03/27 08:10:10;;;;;;;34.05;24.08;;;33.50;88.20;;;;;;5106782;28;20159;-62
2022/03/27 08:12:36;;;;;;;33.53;24.05;;;33.50;87.50;;;;;;5102431;28;20380;-60
2022/03/27 08:15:05;;;;;;;32.75;25.30;;;33.50;85.50;;;;;;5107935;27;20490;-60
2022/03/27 08:17:32;;;;;;;36.45;25.02;;;33.40;85.80;;;;;;5108255;28;20088;-61
2022/03/27 08:19:59;;;;;;;62.95;49.42;;;33.40;85.80;;;;;;5104474;28;20036;-62
2022/03/27 08:22:26;;;;;;;29.92;23.42;;;33.30;85.40;;;;;;5106914;27;20035;-61
2022/03/27 08:24:53;;;;;;;37.25;21.88;;;33.30;85.70;;;;;;5107643;28;20068;-61
2022/03/27 08:27:20;;;;;;;33.10;22.83;;;33.30;86.50;;;;;;5111361;28;20085;-60
2022/03/27 08:29:47;;;;;;;33.38;21.38;;;33.30;85.80;;;;;;5112445;27;20051;-62
2022/03/27 08:32:16;;;;;;;31.88;23.23;;;33.30;85.50;;;;;;5107176;28;20733;-61
2022/03/27 08:34:48;;;;;;;40.50;25.65;;;33.30;86.10;;;;;;5108523;28;20040;-61
2022/03/27 08:37:16;;;;;;;36.42;22.33;;;33.30;86.00;;;;;;5109089;28;20035;-61
2022/03/27 08:39:45;;;;;;;35.58;25.35;;;33.40;86.00;;;;;;5110593;28;20032;-61
2022/03/27 08:42:16;;;;;;;53.38;36.15;;;33.40;86.00;;;;;;5110821;28;20020;-62
2022/03/27 08:44:43;;;;;;;49.72;29.52;;;33.40;86.60;;;;;;5108460;28;20423;-61
2022/03/27 08:47:19;;;;;;;53.67;36.30;;;33.50;87.20;;;;;;5114068;28;20032;-61
2022/03/27 08:49:59;;;;;;;39.83;27.88;;;33.50;87.60;;;;;;5116095;28;20027;-61
2022/03/27 08:52:34;;;;;;;48.88;34.10;;;33.50;87.90;;;;;;5109802;28;20035;-60
2022/03/27 08:55:05;;;;;;;33.65;25.60;;;33.40;86.40;;;;;;5111788;28;20157;-61
2022/03/27 08:57:55;;;;;;;33.55;23.75;;;33.40;86.30;;;;;;5114457;28;20384;-59
2022/03/27 09:00:24;;;;;;;29.90;22.88;;;33.40;85.50;;;;;;5115660;28;20114;-61
2022/03/27 09:02:51;;;;;;;32.45;21.65;;;33.30;85.80;;;;;;5112097;28;20063;-59
2022/03/27 09:05:20;;;;;;;36.55;26.02;;;33.30;86.30;;;;;;5114997;28;20038;-59
2022/03/27 09:07:48;;;;;;;31.95;23.10;;;33.30;86.50;;;;;;5115880;28;20447;-61
2022/03/27 09:10:16;;;;;;;31.10;22.40;;;33.20;85.70;;;;;;5109316;28;20105;-61
2022/03/27 09:12:45;;;;;;;28.48;21.60;;;33.20;86.90;;;;;;5111755;28;20484;-61
2022/03/27 09:15:13;;;;;;;31.92;22.70;;;33.20;86.50;;;;;;5106849;28;20031;-60
2022/03/27 09:17:47;;;;;;;30.65;21.38;;;33.00;88.40;;;;;;5107067;28;20514;-59
2022/03/27 09:20:14;;;;;;;30.27;21.30;;;33.00;89.70;;;;;;5096220;28;20036;-59
2022/03/27 09:22:41;;;;;;;27.00;19.65;;;33.00;90.50;;;;;;5095780;28;20085;-59
2022/03/27 09:25:08;;;;;;;27.15;19.77;;;32.80;91.00;;;;;;5104111;28;20332;-59
2022/03/27 09:27:37;;;;;;;32.10;20.25;;;32.90;91.20;;;;;;5115839;28;20046;-59
2022/03/27 09:30:11;;;;;;;24.88;18.88;;;32.80;91.10;;;;;;5116063;28;20019;-59
2022/03/27 09:32:39;;;;;;;22.80;17.33;;;32.80;91.30;;;;;;5116085;28;20024;-59
2022/03/27 09:35:10;;;;;;;26.80;18.63;;;32.80;91.40;;;;;;5116019;28;20063;-60
2022/03/27 09:37:42;;;;;;;33.42;21.95;;;32.80;91.50;;;;;;5115980;28;20035;-59
2022/03/27 09:40:11;;;;;;;29.58;20.15;;;32.80;91.80;;;;;;5115792;28;20476;-59
2022/03/27 09:42:40;;;;;;;32.10;19.67;;;32.80;91.70;;;;;;5115620;28;20032;-59
2022/03/27 09:45:26;;;;;;;34.63;22.35;;;32.80;91.60;;;;;;5115743;28;20032;-59
2022/03/27 09:47:53;;;;;;;29.00;21.15;;;32.70;91.60;;;;;;5115515;28;20540;-58
2022/03/27 09:50:34;;;;;;;21.20;16.60;;;32.70;92.10;;;;;;5106269;28;20020;-59
2022/03/27 09:53:21;;;;;;;20.27;16.52;;;32.60;92.40;;;;;;5106294;28;20019;-60
2022/03/27 09:56:10;;;;;;;26.02;17.77;;;32.50;92.50;;;;;;5105159;28;20028;-59
2022/03/27 09:58:45;;;;;;;22.20;18.45;;;32.40;92.60;;;;;;5095007;28;20112;-59
2022/03/27 10:01:16;;;;;;;30.52;18.55;;;32.30;92.80;;;;;;5094854;28;20437;-59
2022/03/27 10:04:01;;;;;;;27.65;17.90;;;32.20;91.40;;;;;;5110095;28;20110;-59
2022/03/27 10:06:31;;;;;;;27.05;18.90;;;31.80;91.70;;;;;;5112673;28;20036;-60
2022/03/27 10:08:58;;;;;;;35.85;21.13;;;31.70;92.70;;;;;;5100300;28;20023;-59
2022/03/27 10:11:25;;;;;;;33.92;18.73;;;31.50;91.40;;;;;;5104568;28;20020;-57
2022/03/27 10:13:53;;;;;;;25.92;15.43;;;31.40;91.60;;;;;;5109512;28;20035;-58
2022/03/27 10:16:27;;;;;;;24.85;15.73;;;31.30;92.00;;;;;;5114331;28;20530;-58
2022/03/27 10:19:02;;;;;;;23.08;15.02;;;31.30;91.20;;;;;;5106545;28;20032;-59
2022/03/27 10:21:30;;;;;;;23.20;14.60;;;31.20;91.20;;;;;;5103836;28;20024;-59
2022/03/27 10:24:12;;;;;;;19.23;12.82;;;31.10;91.10;;;;;;5103536;28;20032;-59
2022/03/27 10:26:44;;;;;;;29.05;16.20;;;30.90;91.20;;;;;;5102564;28;20196;-58
2022/03/27 10:29:12;;;;;;;29.13;19.50;;;30.90;91.10;;;;;;5097196;28;20114;-60
2022/03/27 10:31:39;;;;;;;26.38;17.80;;;30.80;91.10;;;;;;5094275;28;20039;-60
2022/03/27 10:34:09;;;;;;;26.98;16.50;;;30.80;90.90;;;;;;5094484;28;20028;-59
2022/03/27 10:36:58;;;;;;;23.33;14.40;;;30.70;91.30;;;;;;5094575;28;20388;-60
2022/03/27 10:39:37;;;;;;;25.92;17.55;;;30.60;91.20;;;;;;5096840;28;20023;-59
2022/03/27 10:42:19;;;;;;;33.45;20.52;;;30.40;91.30;;;;;;5103747;28;20024;-59
2022/03/27 10:44:51;;;;;;;32.80;18.27;;;30.30;90.90;;;;;;5104143;28;20028;-58
2022/03/27 10:47:20;;;;;;;24.10;14.27;;;30.10;90.70;;;;;;5103056;28;20028;-60
2022/03/27 10:50:20;;;;;;;30.98;17.35;;;30.00;91.20;;;;;;5103775;28;20248;-59
2022/03/27 10:52:54;;;;;;;28.52;18.85;;;30.00;91.30;;;;;;5102441;28;20357;-59
2022/03/27 10:55:20;;;;;;;32.90;19.77;;;29.90;91.30;;;;;;5103297;28;20024;-59
2022/03/27 10:57:52;;;;;;;28.63;19.00;;;29.70;91.10;;;;;;5103431;28;20024;-59
2022/03/27 11:00:42;;;;;;;30.00;18.98;;;29.60;91.00;;;;;;5102403;28;20417;-56
2022/03/27 11:03:09;;;;;;;28.33;18.85;;;29.60;91.60;;;;;;5104197;28;20119;-59
2022/03/27 11:05:35;;;;;;;34.03;20.13;;;29.60;91.20;;;;;;5102608;28;20024;-57
2022/03/27 11:08:26;;;;;;;30.55;20.70;;;29.60;91.30;;;;;;5104242;28;20452;-59
2022/03/27 11:10:59;;;;;;;37.60;21.92;;;29.60;91.80;;;;;;5104513;28;20063;-58
2022/03/27 11:13:43;;;;;;;36.10;22.88;;;29.60;91.20;;;;;;5103320;28;20475;-59
2022/03/27 11:16:11;;;;;;;46.40;24.70;;;29.60;91.70;;;;;;5103813;28;20399;-59
2022/03/27 11:18:40;;;;;;;34.78;22.95;;;29.60;92.40;;;;;;5102343;28;20020;-59
2022/03/27 11:21:09;;;;;;;38.35;22.13;;;29.60;91.90;;;;;;5103308;28;20019;-59
2022/03/27 11:23:38;;;;;;;39.80;23.33;;;29.50;92.00;;;;;;5107951;28;20031;-58
2022/03/27 11:26:19;;;;;;;37.38;24.23;;;29.50;92.20;;;;;;5103221;28;20020;-59
2022/03/27 11:28:53;;;;;;;38.00;22.30;;;29.40;92.30;;;;;;5102920;28;20107;-59
2022/03/27 11:31:26;;;;;;;28.92;18.05;;;29.40;92.10;;;;;;5102401;28;20068;-59
2022/03/27 11:34:00;;;;;;;24.75;14.65;;;29.30;92.00;;;;;;5105178;28;20028;-59
2022/03/27 11:36:27;;;;;;;20.65;14.13;;;29.10;92.40;;;;;;5107848;28;20020;-59
2022/03/27 11:38:54;;;;;;;19.95;13.50;;;29.00;92.70;;;;;;5106569;28;20028;-59
2022/03/27 11:41:24;;;;;;;21.83;13.77;;;29.00;92.80;;;;;;5109318;28;20039;-60
2022/03/27 11:43:52;;;;;;;24.35;14.65;;;28.90;92.90;;;;;;5106922;27;20076;-60
2022/03/27 11:46:27;;;;;;;25.27;13.88;;;28.80;93.90;;;;;;5104672;28;20465;-59
2022/03/27 11:48:59;;;;;;;28.67;15.27;;;28.80;94.00;;;;;;5105642;28;20020;-59
2022/03/27 11:51:26;;;;;;;;;;;28.70;94.40;;;;;;5097909;28;20372;-59
2022/03/27 11:53:54;;;;;;;21.92;13.88;;;28.80;94.50;;;;;;5097672;28;19990;-60
2022/03/27 11:56:23;;;;;;;19.75;13.88;;;28.60;94.40;;;;;;5100562;28;20116;-58
2022/03/27 11:59:12;;;;;;;20.27;13.65;;;28.60;94.90;;;;;;5108513;27;20031;-59
2022/03/27 12:01:40;;;;;;;21.17;13.30;;;28.70;95.20;;;;;;5119776;27;20038;-58
2022/03/27 12:04:07;;;;;;;18.85;12.38;;;28.50;94.80;;;;;;5117503;28;20384;-59
2022/03/27 12:06:34;;;;;;;44.28;30.17;;;28.40;95.30;;;;;;5117548;28;20032;-59
2022/03/27 12:09:00;;;;;;;41.90;28.15;;;28.40;96.20;;;;;;5117672;28;20027;-59
2022/03/27 12:11:27;;;;;;;52.17;33.28;;;28.50;95.50;;;;;;5117372;28;20051;-58
2022/03/27 12:13:56;;;;;;;48.97;29.15;;;28.40;95.90;;;;;;5117599;28;20463;-57
2022/03/27 12:16:26;;;;;;;28.48;15.98;;;28.40;96.50;;;;;;5117265;28;20126;-55
2022/03/27 12:18:53;;;;;;;27.10;16.48;;;28.40;96.30;;;;;;5117597;28;20365;-58
2022/03/27 12:21:22;;;;;;;25.55;14.93;;;28.50;96.60;;;;;;5117203;28;20031;-59
2022/03/27 12:23:51;;;;;;;26.98;17.23;;;28.50;97.30;;;;;;5117603;28;20155;-57
2022/03/27 12:31:49;;;;;;;44.05;31.50;;;28.40;96.40;;;;;;5098213;28;20016;-57
2022/03/27 12:34:16;;;;;;;52.42;38.72;;;28.40;97.30;;;;;;5114133;28;20057;-60
2022/03/27 12:37:10;;;;;;;40.38;26.50;;;28.50;96.90;;;;;;5117077;28;20037;-55
2022/03/27 12:39:41;;;;;;;39.15;26.25;;;28.50;97.70;;;;;;5110005;28;20035;-59
2022/03/27 12:42:37;;;;;;;64.95;44.75;;;28.40;96.70;;;;;;5117188;27;20019;-60
2022/03/27 12:45:17;;;;;;;112.40;84.32;;;28.40;97.00;;;;;;5115875;28;20055;-58
2022/03/27 12:47:55;;;;;;;121.07;88.20;;;28.30;97.20;;;;;;5116839;28;20436;-59